Terminal Aerodrome Forecast
Issued by NWS Shreveport, LA

Current Version | Previous Version | Text Only | Print | Product List | Glossary On
Versions: 1 2 3 4 5 6 7 8 9 10 11 12 13 14 15 16
577
FTUS44 KSHV 261140
TAFTXK
TAF
KTXK 261140Z 2612/2712 VRB03KT P6SM SKC
     FM261500 11005KT P6SM SKC
     FM261700 11006KT P6SM SCT040
     FM270100 10003KT P6SM SKC
     FM270600 16003KT P6SM FEW250=

USA.gov is the U.S. government's official web portal to all federal, state and local government web resources and services.